Rutledge, GA (30663)

3:39 PM EDT on August 27, 2015 (GMT -0400)
APRSWXNET | | Change Station
CLOSE
Current Station
Personal Weather Station
Location: Social Circle, GA
Elevation: 805 ft
Nearby Weather Stations

Elev 805 ft 33.65 °N, 83.75 °W | Updated 23 minutes ago

Partly Cloudy
Partly Cloudy
81 °F
Feels Like 85 °F
N
1
Wind Variable Wind from NNW
Gusts 3.0 mph

Today
High -- | Low -- °F
--% Chance of Precip.
Yesterday
High -- | Low -- °F
Precip. -- in
7:04 AM 8:06 PM
Waxing Gibbous, 94% visible
Pressure 30.07 in
Visibility 10.0 miles
Clouds Scattered Clouds 3100 ft
Scattered Clouds 4500 ft
Mostly Cloudy 5000 ft
Heat Index 85 °F
Dew Point 71 °F
Humidity 71%
Rainfall in
Snow Depth Not available.
UV 5 out of 12
Pollen 7.90 out of 12
Air Quality Not available.
Flu Activity Not available.
METAR KWDR 271915Z AUTO 06005KT 10SM SCT031 SCT045 BKN050 27/18 A3007 RMK AO1 LTG DSNT SE
Pressure 30.07 in
Visibility 10.0 miles
Clouds Scattered Clouds 3100 ft
Scattered Clouds 4500 ft
Mostly Cloudy 5000 ft
Heat Index 85 °F
Dew Point 71 °F
Humidity 71%
Rainfall in
Snow Depth Not available.
UV 5 out of 12
Pollen 7.90 out of 12
Air Quality Not available.
Flu Activity Not available.
METAR KWDR 271915Z AUTO 06005KT 10SM SCT031 SCT045 BKN050 27/18 A3007 RMK AO1 LTG DSNT SE

10-Day Weather Forecast

×

Almanac

Astronomy

Aug. 27, 2015 Rise Set
Actual Time
Civil Twilight
Nautical Twilight
Astronomical Twilight
Moon
Length of Visible Light
Length of Day
Tomorrow will be .
, % of the Moon is Illuminated

Today's Extremes

State Highs State Lows

Community

WunderPhotos

Upload Photos

1,850,195 photos uploaded!

WunderBlogs® & News

Nearby

Air Quality

  Air Quality AQ Index Pollutant
Not available.

Snow Depth

Station Depth Elevation

Earthquake Activity

City Distance Mag. Time & Date
Minimum magnitude displayed is 2.5.

Coastal Water Temperatures

Place Temperature

Stations

Nearby Weather Stations

Station Location Temp. Windchill Dew Point Humidity Wind Precip. Elev Updated Type